Time;durP1;ratioP1;P1;durP2;ratioP2;P2;SDS_P1;SDS_P2;PMS_P1;PMS_P2;Temp;Humidity;BMP_temperature;BMP_pressure;BME280_temperature;BME280_humidity;BME280_pressure;Samples;Min_cycle;Max_cycle;Signal;HPM_P1;HPM_P2
2023/03/12 00:00:53;;;;;;;4.12;2.20;;;;;;;-0.49;91.57;98057.31;4485585;31;20997;-64
2023/03/12 00:03:21;;;;;;;5.68;2.47;;;;;;;-0.49;91.06;98070.19;4485356;31;20177;-64
2023/03/12 00:05:48;;;;;;;3.15;1.95;;;;;;;-0.48;91.03;98079.56;4485048;32;20143;-64
2023/03/12 00:08:16;;;;;;;4.85;2.72;;;;;;;-0.46;92.07;98085.44;4485564;31;20130;-64
2023/03/12 00:10:43;;;;;;;4.22;2.12;;;;;;;-0.51;92.75;98093.41;4485212;31;20167;-64
2023/03/12 00:13:10;;;;;;;4.80;2.12;;;;;;;-0.63;93.80;98091.53;4485316;31;20183;-64
2023/03/12 00:15:38;;;;;;;3.92;2.55;;;;;;;-0.66;94.78;98079.66;4485365;31;20115;-64
2023/03/12 00:18:05;;;;;;;4.85;2.62;;;;;;;-0.73;96.23;98096.31;4485230;31;20100;-64
2023/03/12 00:20:33;;;;;;;3.70;2.22;;;;;;;-0.84;96.07;98086.63;4485365;31;20477;-64
2023/03/12 00:23:00;;;;;;;7.05;2.92;;;;;;;-0.86;97.90;98090.19;4485410;31;20100;-64
2023/03/12 00:25:27;;;;;;;3.55;2.10;;;;;;;-0.91;98.65;98090.41;4485219;31;20578;-64
2023/03/12 00:27:54;;;;;;;4.40;2.37;;;;;;;-0.93;98.43;98084.53;4485303;31;20161;-64
2023/03/12 00:30:21;;;;;;;3.58;1.85;;;;;;;-0.99;98.52;98093.41;4485339;32;20104;-64
2023/03/12 00:32:49;;;;;;;5.03;2.50;;;;;;;-0.96;98.61;98089.84;4485326;31;20442;-64
2023/03/12 00:35:16;;;;;;;6.25;2.97;;;;;;;-0.95;98.71;98097.47;4484836;32;20169;-64
2023/03/12 00:37:43;;;;;;;3.22;2.00;;;;;;;-0.93;98.47;98097.41;4483930;32;20529;-64
2023/03/12 00:40:11;;;;;;;3.25;1.85;;;;;;;-0.94;98.78;98104.28;4485173;31;20160;-64
2023/03/12 00:42:38;;;;;;;3.92;1.77;;;;;;;-0.97;98.80;98107.03;4485223;31;20559;-64
2023/03/12 00:45:06;;;;;;;4.25;2.50;;;;;;;-0.99;98.92;98110.59;4484882;31;20165;-64
2023/03/12 00:47:34;;;;;;;4.28;1.83;;;;;;;-1.00;99.30;98114.91;4485274;31;20148;-64
2023/03/12 00:50:01;;;;;;;3.40;2.00;;;;;;;-0.99;99.45;98116.53;4485021;31;20100;-64
2023/03/12 00:52:28;;;;;;;4.65;2.30;;;;;;;-0.94;98.93;98127.44;4485207;31;20335;-64
2023/03/12 00:54:57;;;;;;;5.28;2.65;;;;;;;-0.98;99.41;98119.97;4484963;31;20097;-64
2023/03/12 00:57:24;;;;;;;4.47;2.05;;;;;;;-0.96;99.43;98128.41;4485076;31;20093;-64
2023/03/12 00:59:52;;;;;;;4.25;1.67;;;;;;;-0.99;100.00;98131.16;4484940;32;20084;-64
2023/03/12 01:02:20;;;;;;;7.10;2.20;;;;;;;-0.97;99.32;98126.75;4485345;31;20080;-64
2023/03/12 01:04:47;;;;;;;4.25;2.55;;;;;;;-0.96;99.57;98125.84;4484784;31;20096;-64
2023/03/12 01:07:14;;;;;;;7.97;2.50;;;;;;;-1.00;99.99;98132.03;4484768;31;20134;-64
2023/03/12 01:09:41;;;;;;;4.00;2.00;;;;;;;-0.98;99.82;98133.63;4484956;31;20114;-64
2023/03/12 01:12:09;;;;;;;4.65;1.92;;;;;;;-0.95;99.50;98136.03;4484778;31;20160;-64
2023/03/12 01:14:36;;;;;;;4.35;2.53;;;;;;;-0.91;99.54;98147.84;4484853;32;20127;-64
2023/03/12 01:17:03;;;;;;;4.68;2.40;;;;;;;-0.98;100.00;98145.66;4484542;31;20172;-64
2023/03/12 01:19:30;;;;;;;3.60;2.15;;;;;;;-0.97;100.00;98150.72;4484725;32;20100;-64
2023/03/12 01:21:57;;;;;;;5.37;2.35;;;;;;;-1.06;100.00;98148.63;4484799;32;20092;-64
2023/03/12 01:24:25;;;;;;;6.15;2.47;;;;;;;-1.01;100.00;98156.94;4484931;32;20140;-64
2023/03/12 01:26:52;;;;;;;5.00;2.50;;;;;;;-1.04;100.00;98164.00;4484860;32;20538;-64
2023/03/12 01:29:19;;;;;;;7.72;2.75;;;;;;;-0.96;100.00;98167.78;4484831;32;20084;-64
2023/03/12 01:31:47;;;;;;;6.18;2.58;;;;;;;-0.99;100.00;98167.97;4484667;31;20157;-64
2023/03/12 01:34:14;;;;;;;5.05;2.67;;;;;;;-1.00;100.00;98162.91;4484998;32;20224;-64
2023/03/12 01:36:41;;;;;;;7.37;3.08;;;;;;;-1.05;100.00;98155.44;4483141;32;20593;-64
2023/03/12 01:39:09;;;;;;;7.47;3.22;;;;;;;-1.06;100.00;98161.47;4484765;31;20160;-64
2023/03/12 01:41:36;;;;;;;5.45;2.50;;;;;;;-1.14;100.00;98167.00;4484635;31;20099;-64
2023/03/12 01:44:05;;;;;;;6.22;3.58;;;;;;;-1.11;100.00;98177.13;4484623;31;20119;-64
2023/03/12 01:46:37;;;;;;;7.37;3.08;;;;;;;-1.17;100.00;98172.31;4484569;31;20076;-64
2023/03/12 01:49:05;;;;;;;5.20;3.12;;;;;;;-1.21;100.00;98181.09;4486818;31;20492;-64
2023/03/12 01:51:36;;;;;;;7.75;2.83;;;;;;;-1.27;100.00;98183.97;4486457;31;20092;-64
2023/03/12 01:54:06;;;;;;;5.95;3.92;;;;;;;-1.28;100.00;98184.88;4486471;31;20537;-64
2023/03/12 01:56:35;;;;;;;5.28;2.95;;;;;;;-1.32;100.00;98185.94;4486320;31;20111;-64
2023/03/12 01:59:08;;;;;;;7.68;2.85;;;;;;;-1.33;100.00;98177.41;4485444;32;20163;-64
2023/03/12 02:01:36;;;;;;;5.87;3.22;;;;;;;-1.37;100.00;98185.34;4486352;31;20149;-64
2023/03/12 02:04:04;;;;;;;7.07;2.90;;;;;;;-1.45;100.00;98194.25;4484954;32;20168;-64
2023/03/12 02:06:51;;;;;;;8.68;4.15;;;;;;;-1.42;100.00;98198.41;4485911;32;20165;-64
2023/03/12 02:09:20;;;;;;;7.43;3.70;;;;;;;-1.43;100.00;98204.47;4486283;32;20076;-64
2023/03/12 02:11:47;;;;;;;9.25;3.60;;;;;;;-1.51;100.00;98204.84;4484797;32;20387;-64
2023/03/12 02:14:15;;;;;;;6.80;3.85;;;;;;;-1.53;100.00;98216.94;4486520;31;20156;-64
2023/03/12 02:16:43;;;;;;;5.15;3.03;;;;;;;-1.55;100.00;98216.16;4485837;31;20393;-64
2023/03/12 02:19:23;;;;;;;5.20;2.80;;;;;;;-1.56;100.00;98222.22;4485253;32;20148;-64
2023/03/12 02:21:51;;;;;;;8.40;3.03;;;;;;;-1.63;100.00;98221.69;4484774;32;20104;-64
2023/03/12 02:24:29;;;;;;;7.37;3.62;;;;;;;-1.67;100.00;98219.34;4486296;31;20135;-64
2023/03/12 02:26:57;;;;;;;5.10;2.87;;;;;;;-1.76;100.00;98212.91;4484621;32;20104;-64
2023/03/12 02:29:27;;;;;;;7.72;3.87;;;;;;;-1.83;100.00;98208.97;4486327;32;20163;-64
2023/03/12 02:31:55;;;;;;;6.65;3.40;;;;;;;-1.86;100.00;98209.94;4485952;31;20107;-64
2023/03/12 02:34:23;;;;;;;6.78;3.70;;;;;;;-1.86;100.00;98216.78;4486409;31;20122;-64
2023/03/12 02:36:50;;;;;;;5.37;3.53;;;;;;;-1.94;100.00;98212.03;4485818;31;20506;-64
2023/03/12 02:39:18;;;;;;;5.62;3.03;;;;;;;-1.93;100.00;98220.59;4486100;31;20544;-64
2023/03/12 02:41:52;;;;;;;4.47;2.85;;;;;;;-1.99;100.00;98231.97;4486062;32;20175;-64
2023/03/12 02:44:29;;;;;;;7.75;3.72;;;;;;;-2.06;100.00;98234.00;4485151;32;20109;-64
2023/03/12 02:46:58;;;;;;;9.60;4.47;;;;;;;-2.04;100.00;98239.06;4485694;32;20163;-64
2023/03/12 02:49:29;;;;;;;8.55;3.87;;;;;;;-2.07;100.00;98247.72;4486219;31;20089;-65
2023/03/12 02:51:59;;;;;;;9.32;3.50;;;;;;;-2.14;100.00;98246.34;4485879;32;20092;-64
2023/03/12 02:54:26;;;;;;;6.60;3.40;;;;;;;-2.13;100.00;98248.00;4486226;31;20100;-65
2023/03/12 02:56:54;;;;;;;6.85;3.62;;;;;;;-2.13;100.00;98253.13;4486071;31;20437;-64
2023/03/12 02:59:25;;;;;;;9.18;4.20;;;;;;;-2.17;100.00;98260.12;4486056;31;20500;-64
2023/03/12 03:01:55;;;;;;;9.60;4.00;;;;;;;-2.17;100.00;98251.59;4485995;32;20167;-64
2023/03/12 03:04:24;;;;;;;8.45;3.67;;;;;;;-2.09;100.00;98270.06;4485961;31;20397;-64
2023/03/12 03:06:51;;;;;;;6.43;3.15;;;;;;;-2.15;100.00;98265.19;4485704;31;20115;-64
2023/03/12 03:09:21;;;;;;;7.43;3.47;;;;;;;-2.15;100.00;98278.87;4484462;32;20084;-64
2023/03/12 03:11:49;;;;;;;9.70;4.55;;;;;;;-2.16;100.00;98294.34;4484468;32;20119;-64
2023/03/12 03:14:16;;;;;;;5.22;3.05;;;;;;;-2.15;100.00;98293.41;4485652;31;20163;-64
2023/03/12 03:16:45;;;;;;;15.10;4.40;;;;;;;-2.15;100.00;98288.28;4485930;31;20458;-64
2023/03/12 03:19:12;;;;;;;7.22;3.42;;;;;;;-2.16;100.00;98300.28;4485753;32;20165;-64
2023/03/12 03:21:39;;;;;;;9.68;3.83;;;;;;;-2.11;100.00;98300.09;4484462;32;20080;-64
2023/03/12 03:24:07;;;;;;;7.25;3.72;;;;;;;-2.10;100.00;98299.19;4485645;31;20568;-64
2023/03/12 03:26:34;;;;;;;7.43;3.92;;;;;;;-2.16;100.00;98304.59;4485595;31;20100;-64
2023/03/12 03:29:02;;;;;;;6.72;4.47;;;;;;;-2.20;100.00;98311.59;4485618;32;20096;-64
2023/03/12 03:31:29;;;;;;;6.65;3.10;;;;;;;-2.17;100.00;98315.75;4485909;32;20200;-64
2023/03/12 03:33:57;;;;;;;7.00;3.83;;;;;;;-2.17;100.00;98313.19;4485851;31;20092;-64
2023/03/12 03:36:24;;;;;;;7.97;3.72;;;;;;;-2.24;100.00;98311.78;4485435;31;20168;-64
2023/03/12 03:38:52;;;;;;;8.38;4.47;;;;;;;-2.25;100.00;98321.22;4485672;31;20096;-64
2023/03/12 03:41:20;;;;;;;10.50;4.85;;;;;;;-2.29;100.00;98324.00;4485772;31;20106;-64
2023/03/12 03:43:47;;;;;;;7.62;3.72;;;;;;;-2.32;100.00;98324.97;4485794;31;20164;-64
2023/03/12 03:46:16;;;;;;;7.22;3.67;;;;;;;-2.34;100.00;98324.22;4485376;31;20355;-64
2023/03/12 03:49:01;;;;;;;10.23;3.55;;;;;;;-2.35;100.00;98328.53;4485725;31;20151;-64
2023/03/12 03:51:29;;;;;;;11.43;4.22;;;;;;;-2.38;100.00;98333.75;4485773;31;20096;-64
2023/03/12 03:53:59;;;;;;;11.75;4.93;;;;;;;-2.37;100.00;98337.16;4485795;31;20160;-64
2023/03/12 03:56:26;;;;;;;7.37;4.68;;;;;;;-2.40;100.00;98340.69;4485821;31;20092;-64
2023/03/12 03:58:53;;;;;;;8.63;3.17;;;;;;;-2.45;100.00;98345.19;4485718;31;20124;-64
2023/03/12 04:01:21;;;;;;;9.25;3.80;;;;;;;-2.45;100.00;98334.94;4485536;31;20088;-64
2023/03/12 04:03:49;;;;;;;9.65;4.75;;;;;;;-2.50;100.00;98326.59;4485591;32;20108;-64
2023/03/12 04:06:17;;;;;;;7.85;4.20;;;;;;;-2.53;100.00;98337.00;4485189;32;20504;-64
2023/03/12 04:08:44;;;;;;;6.03;3.70;;;;;;;-2.58;100.00;98338.94;4485569;31;20100;-64
2023/03/12 04:11:14;;;;;;;12.80;5.15;;;;;;;-2.59;100.00;98347.50;4485292;31;20430;-64
2023/03/12 04:13:42;;;;;;;7.05;3.53;;;;;;;-2.58;100.00;98350.00;4485608;31;20164;-64
2023/03/12 04:16:10;;;;;;;11.20;4.93;;;;;;;-2.55;100.00;98352.44;4485618;32;20360;-64
2023/03/12 04:18:38;;;;;;;8.27;4.28;;;;;;;-2.58;100.00;98357.69;4485609;31;20108;-64
2023/03/12 04:21:08;;;;;;;7.87;3.85;;;;;;;-2.58;100.00;98355.13;4485290;31;20083;-64
2023/03/12 04:23:36;;;;;;;8.90;3.83;;;;;;;-2.60;100.00;98368.94;4485673;31;20096;-64
2023/03/12 04:26:05;;;;;;;9.25;3.95;;;;;;;-2.67;100.00;98376.87;4485632;31;20111;-64
2023/03/12 04:28:34;;;;;;;8.52;4.85;;;;;;;-2.71;100.00;98385.59;4485235;31;20528;-64
2023/03/12 04:31:03;;;;;;;7.20;3.75;;;;;;;-2.74;100.00;98390.84;4485607;31;20096;-64
2023/03/12 04:33:35;;;;;;;8.82;4.55;;;;;;;-2.71;100.00;98385.59;4485530;31;20092;-64
2023/03/12 04:36:03;;;;;;;7.07;3.50;;;;;;;-2.71;100.00;98395.84;4485578;31;20115;-64
2023/03/12 04:38:30;;;;;;;7.95;3.65;;;;;;;-2.78;100.00;98404.69;4485032;31;20394;-64
2023/03/12 04:41:10;;;;;;;11.20;4.37;;;;;;;-2.74;100.00;98413.94;4485195;31;20456;-64
2023/03/12 04:43:37;;;;;;;7.80;4.15;;;;;;;-2.73;100.00;98407.87;4485211;31;20122;-64
2023/03/12 04:46:05;;;;;;;10.25;5.18;;;;;;;-2.73;100.00;98418.13;4485386;31;20168;-64
2023/03/12 04:48:33;;;;;;;9.57;4.55;;;;;;;-2.69;100.00;98419.69;4485260;31;20122;-64
2023/03/12 04:51:02;;;;;;;8.40;3.80;;;;;;;-2.71;100.00;98426.62;4485495;31;20144;-64
2023/03/12 04:53:30;;;;;;;10.18;4.57;;;;;;;-2.67;100.00;98438.41;4485488;31;20164;-64
2023/03/12 04:55:58;;;;;;;8.60;4.62;;;;;;;-2.69;100.00;98427.38;4485475;31;20213;-64
2023/03/12 04:58:26;;;;;;;9.63;3.72;;;;;;;-2.63;100.00;98435.75;4485372;32;20123;-64
2023/03/12 05:00:53;;;;;;;10.02;4.15;;;;;;;-2.68;100.00;98439.31;4485294;31;20430;-64
2023/03/12 05:03:21;;;;;;;7.32;3.58;;;;;;;-2.60;100.00;98443.31;4485178;31;20119;-64
2023/03/12 05:05:48;;;;;;;8.55;4.57;;;;;;;-2.56;100.00;98440.56;4485066;31;20096;-64
2023/03/12 05:08:16;;;;;;;10.40;4.90;;;;;;;-2.59;100.00;98442.38;4484920;32;20411;-64
2023/03/12 05:10:44;;;;;;;9.30;4.25;;;;;;;-2.56;100.00;98440.56;4485015;31;20441;-64
2023/03/12 05:13:16;;;;;;;8.05;4.15;;;;;;;-2.51;100.00;98438.63;4485082;31;20511;-64
2023/03/12 05:15:46;;;;;;;9.88;5.05;;;;;;;-2.52;100.00;98439.50;4485091;31;20441;-64
2023/03/12 05:18:14;;;;;;;11.25;4.47;;;;;;;-2.44;100.00;98431.50;4484700;31;20501;-64
2023/03/12 05:20:41;;;;;;;7.50;3.72;;;;;;;-2.43;100.00;98443.44;4484793;31;20119;-64
2023/03/12 05:23:09;;;;;;;10.63;4.57;;;;;;;-2.42;100.00;98446.81;4484257;32;20115;-64
2023/03/12 05:25:40;;;;;;;6.60;3.83;;;;;;;-2.33;100.00;98454.97;4484721;31;20119;-64
2023/03/12 05:28:07;;;;;;;9.73;4.20;;;;;;;-2.32;100.00;98464.34;4484839;31;20183;-64
2023/03/12 05:30:35;;;;;;;7.40;3.85;;;;;;;-2.25;100.00;98464.09;4484748;31;20098;-64
2023/03/12 05:33:02;;;;;;;9.65;5.40;;;;;;;-2.23;100.00;98468.25;4484748;32;20083;-64
2023/03/12 05:35:30;;;;;;;7.45;4.25;;;;;;;-2.20;100.00;98475.81;4484925;31;20108;-64
2023/03/12 05:37:58;;;;;;;11.85;4.55;;;;;;;-2.15;100.00;98476.47;4484641;31;20092;-64
2023/03/12 05:40:25;;;;;;;13.60;4.85;;;;;;;-2.08;100.00;98481.34;4484407;31;20115;-64
2023/03/12 05:42:52;;;;;;;8.88;4.55;;;;;;;-2.15;100.00;98478.19;4484647;31;20138;-64
2023/03/12 05:45:20;;;;;;;7.55;3.58;;;;;;;-2.13;100.00;98481.53;4484708;31;20076;-64
2023/03/12 05:47:49;;;;;;;8.57;4.25;;;;;;;-2.07;100.00;98495.84;4484577;31;20382;-64
2023/03/12 05:50:16;;;;;;;11.85;5.55;;;;;;;-2.16;100.00;98494.50;4484418;32;20113;-64
2023/03/12 05:52:44;;;;;;;9.40;4.20;;;;;;;-2.09;100.00;98493.34;4484303;31;20442;-64
2023/03/12 05:55:11;;;;;;;9.90;4.12;;;;;;;-2.03;100.00;98505.91;4484457;31;20100;-64
2023/03/12 05:57:38;;;;;;;9.00;4.15;;;;;;;-1.98;100.00;98518.56;4483085;32;20093;-64
2023/03/12 06:00:07;;;;;;;7.22;3.75;;;;;;;-1.95;100.00;98518.44;4484002;31;20112;-64
2023/03/12 06:02:39;;;;;;;9.05;4.60;;;;;;;-1.90;100.00;98519.06;4482970;32;20112;-64
2023/03/12 06:05:09;;;;;;;8.60;4.00;;;;;;;-1.73;100.00;98523.47;4484166;31;20160;-64
2023/03/12 06:07:36;;;;;;;8.90;4.22;;;;;;;-1.67;100.00;98519.81;4484158;31;20370;-64
2023/03/12 06:10:04;;;;;;;8.77;3.97;;;;;;;-1.65;100.00;98531.69;4483899;31;20145;-64
2023/03/12 06:12:31;;;;;;;5.70;2.85;;;;;;;-1.56;100.00;98537.31;4467940;32;20096;-64
2023/03/12 06:14:59;;;;;;;9.57;4.10;;;;;;;-1.48;100.00;98548.09;4482261;32;20115;-64
2023/03/12 06:17:28;;;;;;;5.50;3.00;;;;;;;-1.40;100.00;98560.59;4484090;31;20096;-64
2023/03/12 06:19:56;;;;;;;7.12;4.25;;;;;;;-1.30;100.00;98560.13;4483916;32;20193;-64
2023/03/12 06:22:24;;;;;;;7.65;4.15;;;;;;;-1.35;100.00;98559.47;4484005;31;20104;-64
2023/03/12 06:24:51;;;;;;;10.13;4.68;;;;;;;-1.29;100.00;98559.25;4483844;31;20469;-64
2023/03/12 06:27:18;;;;;;;9.07;3.92;;;;;;;-1.17;100.00;98567.28;4484112;31;20458;-64
2023/03/12 06:29:46;;;;;;;8.40;4.25;;;;;;;-1.04;100.00;98565.03;4483772;31;20152;-64
2023/03/12 06:32:13;;;;;;;8.48;4.50;;;;;;;-0.90;100.00;98572.94;4483844;32;20108;-64
2023/03/12 06:34:41;;;;;;;10.57;4.72;;;;;;;-0.82;100.00;98575.97;4485882;32;20097;-64
2023/03/12 06:37:08;;;;;;;10.00;4.45;;;;;;;-0.81;100.00;98585.38;4485947;31;20171;-64
2023/03/12 06:39:35;;;;;;;11.10;5.55;;;;;;;-0.68;100.00;98584.78;4485951;31;20084;-64
2023/03/12 06:42:03;;;;;;;12.88;5.05;;;;;;;-0.76;100.00;98587.72;4486218;31;20160;-64
2023/03/12 06:44:30;;;;;;;8.35;3.83;;;;;;;-0.77;100.00;98592.03;4485926;32;20104;-64
2023/03/12 06:46:57;;;;;;;10.45;4.78;;;;;;;-0.65;100.00;98603.50;4485816;31;20103;-64
2023/03/12 06:49:26;;;;;;;9.60;4.43;;;;;;;-0.52;100.00;98601.19;4485849;31;20219;-64
2023/03/12 06:51:54;;;;;;;7.35;4.20;;;;;;;-0.54;100.00;98606.41;4485847;31;20160;-64
2023/03/12 06:54:21;;;;;;;9.20;4.35;;;;;;;-0.48;100.00;98597.56;4485937;31;20092;-64
2023/03/12 06:56:49;;;;;;;9.43;4.62;;;;;;;-0.51;100.00;98607.19;4485997;32;20235;-64
2023/03/12 06:59:17;;;;;;;6.78;4.20;;;;;;;-0.44;100.00;98613.69;4485955;31;20119;-64
2023/03/12 07:01:44;;;;;;;10.02;4.62;;;;;;;-0.55;100.00;98617.59;4485659;31;20143;-64
2023/03/12 07:04:12;;;;;;;11.27;5.05;;;;;;;-0.57;100.00;98618.59;4485905;31;20537;-64
2023/03/12 07:06:39;;;;;;;8.32;4.35;;;;;;;-0.49;100.00;98623.38;4485384;32;20104;-64
2023/03/12 07:09:06;;;;;;;9.07;4.65;;;;;;;-0.24;100.00;98621.31;4485881;31;20163;-64
2023/03/12 07:11:34;;;;;;;9.68;5.22;;;;;;;-0.21;100.00;98623.75;4485925;31;20096;-64
2023/03/12 07:14:01;;;;;;;10.57;4.80;;;;;;;-0.30;100.00;98641.34;4485816;31;20123;-64
2023/03/12 07:16:29;;;;;;;9.07;4.30;;;;;;;-0.26;100.00;98627.44;4485520;31;20112;-64
2023/03/12 07:18:57;;;;;;;14.48;5.18;;;;;;;-0.20;100.00;98632.28;4486068;31;20123;-64
2023/03/12 07:21:25;;;;;;;9.93;4.70;;;;;;;-0.24;100.00;98628.22;4485654;31;20087;-64
2023/03/12 07:23:52;;;;;;;6.93;4.10;;;;;;;-0.13;99.97;98632.84;4485847;31;20100;-64
2023/03/12 07:26:20;;;;;;;9.05;4.75;;;;;;;-0.27;99.11;98631.75;4485660;32;20106;-64
2023/03/12 07:28:48;;;;;;;11.05;5.03;;;;;;;-0.17;100.00;98631.31;4485657;32;20084;-64
2023/03/12 07:31:15;;;;;;;7.87;3.85;;;;;;;-0.03;100.00;98634.06;4485442;31;20485;-64
2023/03/12 07:33:42;;;;;;;8.68;4.30;;;;;;;0.07;98.41;98630.13;4485691;31;20175;-64
2023/03/12 07:36:10;;;;;;;7.97;3.95;;;;;;;0.20;97.42;98645.00;4485624;32;20157;-64
2023/03/12 07:38:37;;;;;;;6.82;4.15;;;;;;;0.25;97.26;98630.97;4485889;31;20084;-64
2023/03/12 07:41:04;;;;;;;7.50;4.43;;;;;;;0.22;95.70;98636.28;4485614;32;20101;-64
2023/03/12 07:43:32;;;;;;;9.45;5.20;;;;;;;0.09;96.72;98633.50;4485569;32;20484;-64
2023/03/12 07:45:59;;;;;;;7.25;3.72;;;;;;;0.34;97.12;98634.84;4484689;32;20114;-64
2023/03/12 07:48:27;;;;;;;8.88;3.80;;;;;;;0.53;98.15;98637.34;4485233;32;20187;-64
2023/03/12 07:50:54;;;;;;;9.05;4.97;;;;;;;0.41;94.28;98632.78;4485703;32;20092;-64
2023/03/12 07:53:21;;;;;;;9.50;4.47;;;;;;;0.49;95.63;98636.66;4485586;31;20114;-64
2023/03/12 07:55:51;;;;;;;8.88;4.50;;;;;;;0.80;95.43;98635.13;4485686;31;20104;-64
2023/03/12 07:58:19;;;;;;;7.80;4.32;;;;;;;0.82;92.95;98645.34;4485426;31;20151;-64
2023/03/12 08:00:46;;;;;;;11.35;4.30;;;;;;;0.85;92.13;98648.59;4485485;32;20127;-64
2023/03/12 08:03:15;;;;;;;7.62;4.12;;;;;;;0.92;91.57;98649.09;4485687;32;20453;-65
2023/03/12 08:05:43;;;;;;;7.43;3.83;;;;;;;0.93;87.50;98645.63;4485408;31;20101;-64
2023/03/12 08:08:10;;;;;;;7.35;3.67;;;;;;;1.01;88.50;98645.22;4485334;31;20574;-64
2023/03/12 08:10:37;;;;;;;5.65;3.42;;;;;;;1.22;88.16;98651.81;4485279;31;20165;-64
2023/03/12 08:13:05;;;;;;;6.90;3.62;;;;;;;1.30;85.20;98648.84;4485309;31;20096;-64
2023/03/12 08:15:32;;;;;;;6.85;4.10;;;;;;;1.45;84.71;98642.03;4485329;31;20096;-64
2023/03/12 08:18:00;;;;;;;8.13;3.65;;;;;;;1.35;83.17;98651.19;4484036;32;20097;-64
2023/03/12 08:20:27;;;;;;;7.85;4.00;;;;;;;1.61;81.80;98667.03;4485659;31;20088;-64
2023/03/12 08:22:56;;;;;;;8.13;4.32;;;;;;;1.56;81.71;98662.94;4485238;31;20122;-64
2023/03/12 08:25:23;;;;;;;7.05;3.55;;;;;;;1.72;80.95;98650.00;4485529;31;20457;-64
2023/03/12 08:27:50;;;;;;;9.85;4.35;;;;;;;1.76;80.26;98655.84;4485264;31;20097;-64
2023/03/12 08:30:17;;;;;;;9.35;5.32;;;;;;;1.81;81.01;98659.00;4485778;31;20123;-64
2023/03/12 08:32:45;;;;;;;8.75;4.45;;;;;;;1.62;82.01;98663.50;4485193;32;20186;-64
2023/03/12 08:35:12;;;;;;;9.55;4.80;;;;;;;1.91;83.13;98662.75;4485427;31;20092;-64
2023/03/12 08:37:40;;;;;;;8.30;3.83;;;;;;;1.94;81.61;98670.34;4485198;31;20146;-64
2023/03/12 08:40:17;;;;;;;9.52;5.40;;;;;;;2.10;80.73;98674.63;4485317;31;20138;-64
2023/03/12 08:42:44;;;;;;;9.38;4.95;;;;;;;2.17;81.77;98665.63;4485393;31;20512;-64
2023/03/12 08:45:12;;;;;;;8.95;4.70;;;;;;;2.43;81.06;98660.72;4485310;31;20103;-64
2023/03/12 08:47:40;;;;;;;11.02;4.72;;;;;;;2.62;78.97;98670.81;4483516;32;20397;-65
2023/03/12 08:50:10;;;;;;;8.32;4.45;;;;;;;2.42;76.84;98669.41;4485271;31;20464;-64
2023/03/12 08:52:38;;;;;;;8.55;4.40;;;;;;;2.36;77.90;98662.00;4485017;32;20129;-65
2023/03/12 08:55:05;;;;;;;8.40;4.28;;;;;;;2.51;75.20;98666.28;4485188;31;20180;-65
2023/03/12 08:57:32;;;;;;;5.55;3.10;;;;;;;2.60;74.17;98662.34;4484921;31;20092;-64
2023/03/12 09:00:00;;;;;;;6.80;3.90;;;;;;;2.80;73.36;98668.91;4485117;31;20104;-64
2023/03/12 09:02:27;;;;;;;9.13;4.32;;;;;;;2.72;72.57;98661.59;4484940;32;20118;-64
2023/03/12 09:04:54;;;;;;;6.62;3.37;;;;;;;2.70;71.64;98665.22;4485098;32;20217;-64
2023/03/12 09:07:22;;;;;;;5.68;3.42;;;;;;;2.79;70.96;98669.84;4484884;31;20080;-64
2023/03/12 09:09:49;;;;;;;7.70;3.65;;;;;;;2.99;68.99;98669.50;4485389;31;20093;-64
2023/03/12 09:12:16;;;;;;;5.20;2.87;;;;;;;2.93;66.44;98675.03;4484876;32;20164;-64
2023/03/12 09:14:43;;;;;;;6.43;3.30;;;;;;;3.05;67.39;98670.06;4485009;31;20084;-64
2023/03/12 09:17:31;;;;;;;8.80;4.55;;;;;;;3.22;65.07;98663.88;4484556;32;20081;-64
2023/03/12 09:19:59;;;;;;;8.45;3.97;;;;;;;3.17;63.97;98674.50;4485384;31;20104;-65
2023/03/12 09:22:28;;;;;;;7.05;3.17;;;;;;;3.24;65.71;98669.78;4484682;32;20092;-65
2023/03/12 09:24:55;;;;;;;9.02;3.97;;;;;;;3.32;65.19;98670.97;4485037;32;20115;-65
2023/03/12 09:27:23;;;;;;;6.25;3.40;;;;;;;3.27;65.26;98683.37;4484721;31;20148;-64
2023/03/12 09:29:52;;;;;;;6.30;3.75;;;;;;;3.37;64.12;98673.28;4484712;31;20115;-64
2023/03/12 09:32:27;;;;;;;6.10;3.40;;;;;;;3.34;65.78;98679.47;4484781;32;20243;-64
2023/03/12 09:34:54;;;;;;;5.20;3.05;;;;;;;3.29;62.88;98684.09;4484470;31;20088;-64
2023/03/12 09:37:22;;;;;;;5.15;2.92;;;;;;;3.35;61.15;98675.13;4484516;31;20088;-64
2023/03/12 09:39:51;;;;;;;4.85;2.58;;;;;;;3.64;62.17;98686.28;4484409;31;20161;-64
2023/03/12 09:42:25;;;;;;;6.70;3.30;;;;;;;3.44;60.94;98682.34;4484498;31;20135;-64
2023/03/12 09:44:54;;;;;;;8.07;3.08;;;;;;;3.35;61.07;98680.31;4484539;31;20164;-65
2023/03/12 09:47:28;;;;;;;4.93;2.97;;;;;;;3.39;60.12;98689.53;4484313;31;20096;-65
2023/03/12 09:50:03;;;;;;;6.65;2.97;;;;;;;3.53;59.84;98684.34;4484782;31;20163;-64
2023/03/12 09:52:38;;;;;;;5.37;2.83;;;;;;;3.69;60.34;98681.66;4483168;32;20100;-65
2023/03/12 09:55:07;;;;;;;6.03;3.15;;;;;;;3.89;61.46;98672.63;4484447;31;20584;-65
2023/03/12 09:57:34;;;;;;;7.07;3.10;;;;;;;3.94;59.86;98671.47;4484466;32;20106;-65
2023/03/12 10:00:05;;;;;;;7.03;3.85;;;;;;;4.04;58.69;98668.22;4484329;31;20504;-65
2023/03/12 10:02:39;;;;;;;5.18;2.85;;;;;;;4.29;60.70;98660.63;4484242;32;20153;-65
2023/03/12 10:05:13;;;;;;;4.10;2.62;;;;;;;4.00;56.76;98671.12;4484130;31;20088;-64
2023/03/12 10:07:47;;;;;;;5.10;3.53;;;;;;;4.07;57.22;98668.03;4484546;31;20068;-65
2023/03/12 10:10:21;;;;;;;;;;;;;;;4.26;58.59;98672.84;4485290;32;20105;-65
2023/03/12 10:13:01;;;;;;;8.35;2.92;;;;;;;4.16;57.56;98663.19;4486378;31;19988;-65
2023/03/12 10:15:40;;;;;;;5.28;3.17;;;;;;;4.29;55.32;98669.22;4470683;32;20559;-65
2023/03/12 10:18:40;;;;;;;6.72;3.55;;;;;;;4.50;54.29;98664.41;4470499;32;20145;-65
2023/03/12 10:21:41;;;;;;;6.65;3.50;;;;;;;4.44;55.82;98665.63;4437075;32;20106;-65
2023/03/12 10:24:23;;;;;;;4.07;2.75;;;;;;;4.44;56.15;98668.22;4436895;32;20135;-65
2023/03/12 10:26:54;;;;;;;5.53;3.15;;;;;;;4.53;57.46;98677.16;4437305;32;20166;-65
2023/03/12 10:29:23;;;;;;;9.02;3.83;;;;;;;4.59;56.72;98683.72;4436873;32;20105;-64
2023/03/12 10:32:10;;;;;;;6.55;3.83;;;;;;;4.68;57.01;98677.06;4424281;32;20498;-65
2023/03/12 10:34:49;;;;;;;9.35;3.17;;;;;;;4.80;56.68;98678.88;4436931;32;20128;-64
2023/03/12 10:37:20;;;;;;;5.10;3.05;;;;;;;4.86;55.69;98680.22;4424179;32;20711;-64
2023/03/12 10:39:48;;;;;;;4.40;2.35;;;;;;;4.80;52.68;98695.28;4436783;32;20223;-64
2023/03/12 10:42:21;;;;;;;5.68;2.67;;;;;;;4.98;48.60;98684.56;4436754;32;20097;-65
2023/03/12 10:44:59;;;;;;;5.87;3.40;;;;;;;5.10;50.57;98686.34;4436650;32;20162;-65
2023/03/12 10:47:37;;;;;;;7.18;2.83;;;;;;;5.15;49.12;98688.63;4436824;32;20495;-65
2023/03/12 10:50:18;;;;;;;5.80;3.22;;;;;;;5.34;48.18;98693.38;4434178;32;20458;-65
2023/03/12 10:52:46;;;;;;;4.90;2.65;;;;;;;5.27;48.11;98690.37;4436734;32;20394;-65
2023/03/12 10:55:25;;;;;;;4.85;3.33;;;;;;;5.27;47.15;98692.16;4436637;32;20299;-64
2023/03/12 10:57:52;;;;;;;4.87;2.67;;;;;;;5.24;46.98;98700.13;4451005;32;20114;-65
2023/03/12 11:00:28;;;;;;;4.80;2.65;;;;;;;5.47;47.73;98702.00;4470116;32;20156;-65
2023/03/12 11:03:17;;;;;;;5.62;2.80;;;;;;;5.37;47.52;98690.56;4470157;32;20085;-65
2023/03/12 11:05:49;;;;;;;6.65;3.20;;;;;;;5.61;47.25;98695.00;4468756;32;20567;-65
2023/03/12 11:08:26;;;;;;;5.43;3.10;;;;;;;5.79;44.53;98693.72;4468981;32;20080;-65
2023/03/12 11:10:54;;;;;;;3.58;2.12;;;;;;;5.74;43.95;98692.38;4475320;32;20103;-65
2023/03/12 11:13:36;;;;;;;3.40;2.33;;;;;;;5.73;40.44;98690.72;4486000;31;20123;-65
2023/03/12 11:16:16;;;;;;;2.67;1.70;;;;;;;5.83;42.43;98687.38;4484529;32;20534;-65
2023/03/12 11:19:00;;;;;;;4.75;2.30;;;;;;;6.16;40.07;98693.72;4485418;32;20110;-65
2023/03/12 11:21:35;;;;;;;2.50;1.80;;;;;;;5.76;39.92;98696.53;4485395;31;20246;-65
2023/03/12 11:24:11;;;;;;;3.53;2.03;;;;;;;5.74;38.39;98693.22;4486058;31;20151;-65
2023/03/12 11:26:48;;;;;;;3.25;1.87;;;;;;;5.83;38.01;98692.56;4485780;31;20092;-65
2023/03/12 11:29:25;;;;;;;3.65;2.10;;;;;;;5.99;37.79;98696.69;4485631;31;20117;-65
2023/03/12 11:32:09;;;;;;;3.15;1.92;;;;;;;5.93;38.38;98690.13;4485778;32;20148;-65
2023/03/12 11:34:37;;;;;;;5.78;2.00;;;;;;;5.81;38.58;98688.41;4485608;32;20474;-65
2023/03/12 11:37:17;;;;;;;4.85;2.10;;;;;;;6.11;38.59;98695.00;4485608;31;20118;-65
2023/03/12 11:39:53;;;;;;;1.52;1.17;;;;;;;6.10;37.01;98685.50;4485571;31;20158;-65
2023/03/12 11:42:26;;;;;;;2.87;1.70;;;;;;;6.11;35.41;98689.78;4485647;31;20119;-65